sensor_id;sensor_type;location;lat;lon;timestamp;temperature;humidity
21085;DHT22;34247;50.064;19.970;2023-01-01T00:01:10;26.10;29.30
21085;DHT22;34247;50.064;19.970;2023-01-01T00:02:37;26.10;29.30
21085;DHT22;34247;50.064;19.970;2023-01-01T00:03:58;26.10;29.20
21085;DHT22;34247;50.064;19.970;2023-01-01T00:05:10;26.10;29.30
21085;DHT22;34247;50.064;19.970;2023-01-01T00:06:18;26.10;29.20
21085;DHT22;34247;50.064;19.970;2023-01-01T00:07:44;26.10;29.20
21085;DHT22;34247;50.064;19.970;2023-01-01T00:08:55;26.10;29.30
21085;DHT22;34247;50.064;19.970;2023-01-01T00:10:23;26.10;29.20
21085;DHT22;34247;50.064;19.970;2023-01-01T00:11:32;26.10;29.20
21085;DHT22;34247;50.064;19.970;2023-01-01T00:12:36;26.10;29.20
21085;DHT22;34247;50.064;19.970;2023-01-01T00:13:41;26.10;29.20
21085;DHT22;34247;50.064;19.970;2023-01-01T00:14:48;26.10;29.20
21085;DHT22;34247;50.064;19.970;2023-01-01T00:15:55;26.10;29.20
21085;DHT22;34247;50.064;19.970;2023-01-01T00:17:17;26.10;29.20
21085;DHT22;34247;50.064;19.970;2023-01-01T00:18:27;26.10;29.20
21085;DHT22;34247;50.064;19.970;2023-01-01T00:19:34;26.10;29.20
21085;DHT22;34247;50.064;19.970;2023-01-01T00:20:40;26.10;29.20
21085;DHT22;34247;50.064;19.970;2023-01-01T00:21:44;26.10;29.20
21085;DHT22;34247;50.064;19.970;2023-01-01T00:22:52;26.10;29.70
21085;DHT22;34247;50.064;19.970;2023-01-01T00:23:58;26.10;29.10
21085;DHT22;34247;50.064;19.970;2023-01-01T00:25:22;26.10;29.10
21085;DHT22;34247;50.064;19.970;2023-01-01T00:26:45;26.10;29.10
21085;DHT22;34247;50.064;19.970;2023-01-01T00:27:49;26.10;29.10
21085;DHT22;34247;50.064;19.970;2023-01-01T00:29:07;26.10;29.10
21085;DHT22;34247;50.064;19.970;2023-01-01T00:30:19;26.10;29.10
21085;DHT22;34247;50.064;19.970;2023-01-01T00:31:24;26.10;29.10
21085;DHT22;34247;50.064;19.970;2023-01-01T00:32:54;26.10;29.00
21085;DHT22;34247;50.064;19.970;2023-01-01T00:34:29;26.10;29.30
21085;DHT22;34247;50.064;19.970;2023-01-01T00:35:32;26.10;29.00
21085;DHT22;34247;50.064;19.970;2023-01-01T00:36:37;26.10;29.10
21085;DHT22;34247;50.064;19.970;2023-01-01T00:37:50;26.10;29.00
21085;DHT22;34247;50.064;19.970;2023-01-01T00:38:54;26.10;29.00
21085;DHT22;34247;50.064;19.970;2023-01-01T00:40:18;26.10;29.00
21085;DHT22;34247;50.064;19.970;2023-01-01T00:41:22;26.10;28.90
21085;DHT22;34247;50.064;19.970;2023-01-01T00:42:36;26.10;28.90
21085;DHT22;34247;50.064;19.970;2023-01-01T00:43:48;26.10;28.90
21085;DHT22;34247;50.064;19.970;2023-01-01T00:44:52;26.10;28.90
21085;DHT22;34247;50.064;19.970;2023-01-01T00:45:56;26.10;29.00
21085;DHT22;34247;50.064;19.970;2023-01-01T00:47:01;26.10;29.20
21085;DHT22;34247;50.064;19.970;2023-01-01T00:48:05;26.00;28.90
21085;DHT22;34247;50.064;19.970;2023-01-01T00:49:13;26.00;29.00
21085;DHT22;34247;50.064;19.970;2023-01-01T00:50:20;26.10;29.00
21085;DHT22;34247;50.064;19.970;2023-01-01T00:51:34;26.10;29.00
21085;DHT22;34247;50.064;19.970;2023-01-01T00:52:42;26.00;28.90
21085;DHT22;34247;50.064;19.970;2023-01-01T00:53:49;26.00;28.90
21085;DHT22;34247;50.064;19.970;2023-01-01T00:54:53;26.00;28.90
21085;DHT22;34247;50.064;19.970;2023-01-01T00:55:57;26.00;29.00
21085;DHT22;34247;50.064;19.970;2023-01-01T00:57:02;26.00;28.90
21085;DHT22;34247;50.064;19.970;2023-01-01T00:58:12;25.90;28.80
21085;DHT22;34247;50.064;19.970;2023-01-01T00:59:15;25.90;28.80
21085;DHT22;34247;50.064;19.970;2023-01-01T01:00:25;25.90;28.80
21085;DHT22;34247;50.064;19.970;2023-01-01T01:01:34;25.90;28.70
21085;DHT22;34247;50.064;19.970;2023-01-01T01:02:37;25.90;28.70
21085;DHT22;34247;50.064;19.970;2023-01-01T01:03:42;25.90;28.80
21085;DHT22;34247;50.064;19.970;2023-01-01T01:05:24;25.90;28.80
21085;DHT22;34247;50.064;19.970;2023-01-01T01:06:37;25.90;28.80
21085;DHT22;34247;50.064;19.970;2023-01-01T01:07:44;25.80;28.70
21085;DHT22;34247;50.064;19.970;2023-01-01T01:08:55;25.80;28.70
21085;DHT22;34247;50.064;19.970;2023-01-01T01:10:04;25.80;28.70
21085;DHT22;34247;50.064;19.970;2023-01-01T01:11:16;25.80;28.80
21085;DHT22;34247;50.064;19.970;2023-01-01T01:12:35;25.80;28.70
21085;DHT22;34247;50.064;19.970;2023-01-01T01:13:49;25.80;28.60
21085;DHT22;34247;50.064;19.970;2023-01-01T01:14:56;25.70;28.60
21085;DHT22;34247;50.064;19.970;2023-01-01T01:16:29;25.70;28.60
21085;DHT22;34247;50.064;19.970;2023-01-01T01:17:44;25.70;28.70
21085;DHT22;34247;50.064;19.970;2023-01-01T01:18:52;25.70;28.70
21085;DHT22;34247;50.064;19.970;2023-01-01T01:19:59;25.70;28.70
21085;DHT22;34247;50.064;19.970;2023-01-01T01:21:04;25.70;28.70
21085;DHT22;34247;50.064;19.970;2023-01-01T01:22:08;25.70;28.80
21085;DHT22;34247;50.064;19.970;2023-01-01T01:23:12;25.70;28.80
21085;DHT22;34247;50.064;19.970;2023-01-01T01:24:18;25.70;28.80
21085;DHT22;34247;50.064;19.970;2023-01-01T01:25:22;25.70;28.70
21085;DHT22;34247;50.064;19.970;2023-01-01T01:26:29;25.70;28.80
21085;DHT22;34247;50.064;19.970;2023-01-01T01:27:40;25.60;28.70
21085;DHT22;34247;50.064;19.970;2023-01-01T01:28:47;25.60;28.70
21085;DHT22;34247;50.064;19.970;2023-01-01T01:29:55;25.60;28.80
21085;DHT22;34247;50.064;19.970;2023-01-01T01:31:13;25.60;28.80
21085;DHT22;34247;50.064;19.970;2023-01-01T01:32:19;25.60;28.80
21085;DHT22;34247;50.064;19.970;2023-01-01T01:33:52;25.50;28.80
21085;DHT22;34247;50.064;19.970;2023-01-01T01:35:08;25.50;28.80
21085;DHT22;34247;50.064;19.970;2023-01-01T01:36:21;25.50;28.90
21085;DHT22;34247;50.064;19.970;2023-01-01T01:37:29;25.50;28.90
21085;DHT22;34247;50.064;19.970;2023-01-01T01:38:41;25.50;28.80
21085;DHT22;34247;50.064;19.970;2023-01-01T01:39:46;25.40;28.80
21085;DHT22;34247;50.064;19.970;2023-01-01T01:41:11;25.50;28.90
21085;DHT22;34247;50.064;19.970;2023-01-01T01:42:51;25.40;28.80
21085;DHT22;34247;50.064;19.970;2023-01-01T01:44:57;25.50;28.80
21085;DHT22;34247;50.064;19.970;2023-01-01T01:46:44;25.40;28.80
21085;DHT22;34247;50.064;19.970;2023-01-01T01:48:06;25.40;29.00
21085;DHT22;34247;50.064;19.970;2023-01-01T01:49:28;25.40;28.90
21085;DHT22;34247;50.064;19.970;2023-01-01T01:50:38;25.40;28.90
21085;DHT22;34247;50.064;19.970;2023-01-01T01:51:44;25.40;28.90
21085;DHT22;34247;50.064;19.970;2023-01-01T01:53:09;25.40;29.00
21085;DHT22;34247;50.064;19.970;2023-01-01T01:54:24;25.40;28.90
21085;DHT22;34247;50.064;19.970;2023-01-01T01:55:35;25.40;29.40
21085;DHT22;34247;50.064;19.970;2023-01-01T01:56:59;25.40;28.90
21085;DHT22;34247;50.064;19.970;2023-01-01T01:58:09;25.40;28.90
21085;DHT22;34247;50.064;19.970;2023-01-01T01:59:20;25.40;28.90
21085;DHT22;34247;50.064;19.970;2023-01-01T02:00:39;25.40;28.90
21085;DHT22;34247;50.064;19.970;2023-01-01T02:01:50;25.30;28.80
21085;DHT22;34247;50.064;19.970;2023-01-01T02:04:22;25.30;28.90
21085;DHT22;34247;50.064;19.970;2023-01-01T02:05:30;25.30;29.00
21085;DHT22;34247;50.064;19.970;2023-01-01T02:06:37;25.30;29.10
21085;DHT22;34247;50.064;19.970;2023-01-01T02:07:44;25.30;29.10
21085;DHT22;34247;50.064;19.970;2023-01-01T02:08:56;25.30;29.10
21085;DHT22;34247;50.064;19.970;2023-01-01T02:10:05;25.30;29.00
21085;DHT22;34247;50.064;19.970;2023-01-01T02:11:15;25.30;28.90
21085;DHT22;34247;50.064;19.970;2023-01-01T02:12:27;25.30;29.00
21085;DHT22;34247;50.064;19.970;2023-01-01T02:13:35;25.20;28.90
21085;DHT22;34247;50.064;19.970;2023-01-01T02:30:02;25.10;29.20
21085;DHT22;34247;50.064;19.970;2023-01-01T02:31:37;25.10;29.10
21085;DHT22;34247;50.064;19.970;2023-01-01T02:33:06;25.10;29.00
21085;DHT22;34247;50.064;19.970;2023-01-01T02:34:38;25.10;29.00
21085;DHT22;34247;50.064;19.970;2023-01-01T02:36:00;25.10;29.10
21085;DHT22;34247;50.064;19.970;2023-01-01T02:37:32;25.10;29.40
21085;DHT22;34247;50.064;19.970;2023-01-01T02:39:10;25.10;28.80
21085;DHT22;34247;50.064;19.970;2023-01-01T02:41:34;25.10;28.90
21085;DHT22;34247;50.064;19.970;2023-01-01T02:42:47;25.10;28.90
21085;DHT22;34247;50.064;19.970;2023-01-01T02:43:55;25.10;28.80
21085;DHT22;34247;50.064;19.970;2023-01-01T02:45:01;25.10;28.80
21085;DHT22;34247;50.064;19.970;2023-01-01T02:46:12;25.10;28.80
21085;DHT22;34247;50.064;19.970;2023-01-01T02:47:17;25.10;28.80
21085;DHT22;34247;50.064;19.970;2023-01-01T02:48:41;25.10;28.80
21085;DHT22;34247;50.064;19.970;2023-01-01T02:49:54;25.10;28.80
21085;DHT22;34247;50.064;19.970;2023-01-01T02:54:07;25.10;29.00
21085;DHT22;34247;50.064;19.970;2023-01-01T02:56:03;25.10;29.00
21085;DHT22;34247;50.064;19.970;2023-01-01T02:58:49;25.10;29.00
21085;DHT22;34247;50.064;19.970;2023-01-01T03:00:29;25.10;29.00
21085;DHT22;34247;50.064;19.970;2023-01-01T03:03:43;25.10;29.00
21085;DHT22;34247;50.064;19.970;2023-01-01T03:05:42;25.10;29.10
21085;DHT22;34247;50.064;19.970;2023-01-01T03:10:57;25.10;29.00
21085;DHT22;34247;50.064;19.970;2023-01-01T03:15:41;25.10;29.00
21085;DHT22;34247;50.064;19.970;2023-01-01T03:17:28;25.10;29.10
21085;DHT22;34247;50.064;19.970;2023-01-01T03:19:18;25.10;29.00
21085;DHT22;34247;50.064;19.970;2023-01-01T03:20:30;25.10;28.90
21085;DHT22;34247;50.064;19.970;2023-01-01T03:22:04;25.10;28.90
21085;DHT22;34247;50.064;19.970;2023-01-01T03:23:16;25.10;28.90
21085;DHT22;34247;50.064;19.970;2023-01-01T03:24:53;25.10;28.80
21085;DHT22;34247;50.064;19.970;2023-01-01T03:26:11;25.10;28.80
21085;DHT22;34247;50.064;19.970;2023-01-01T03:27:33;25.10;28.70
21085;DHT22;34247;50.064;19.970;2023-01-01T03:28:53;25.10;28.70
21085;DHT22;34247;50.064;19.970;2023-01-01T03:30:03;25.10;28.80
21085;DHT22;34247;50.064;19.970;2023-01-01T03:31:16;25.10;28.70
21085;DHT22;34247;50.064;19.970;2023-01-01T03:32:38;25.10;28.70
21085;DHT22;34247;50.064;19.970;2023-01-01T03:34:12;25.00;28.60
21085;DHT22;34247;50.064;19.970;2023-01-01T03:35:23;25.10;28.60
21085;DHT22;34247;50.064;19.970;2023-01-01T03:36:38;25.10;28.70
21085;DHT22;34247;50.064;19.970;2023-01-01T03:37:49;25.10;28.60
21085;DHT22;34247;50.064;19.970;2023-01-01T03:39:33;25.00;28.70
21085;DHT22;34247;50.064;19.970;2023-01-01T03:40:41;25.10;28.70
21085;DHT22;34247;50.064;19.970;2023-01-01T03:42:44;25.00;28.70
21085;DHT22;34247;50.064;19.970;2023-01-01T03:43:55;25.00;28.70
21085;DHT22;34247;50.064;19.970;2023-01-01T03:46:17;25.00;28.70
21085;DHT22;34247;50.064;19.970;2023-01-01T03:47:24;25.00;28.60
21085;DHT22;34247;50.064;19.970;2023-01-01T03:48:29;25.00;28.70
21085;DHT22;34247;50.064;19.970;2023-01-01T03:49:59;25.00;28.70
21085;DHT22;34247;50.064;19.970;2023-01-01T03:51:14;25.00;28.70
21085;DHT22;34247;50.064;19.970;2023-01-01T03:52:29;25.00;28.70
21085;DHT22;34247;50.064;19.970;2023-01-01T03:53:46;25.00;28.70
21085;DHT22;34247;50.064;19.970;2023-01-01T03:55:28;24.90;28.70
21085;DHT22;34247;50.064;19.970;2023-01-01T03:57:18;24.90;28.70
21085;DHT22;34247;50.064;19.970;2023-01-01T03:58:44;24.90;28.70
21085;DHT22;34247;50.064;19.970;2023-01-01T04:00:04;25.00;28.70
21085;DHT22;34247;50.064;19.970;2023-01-01T04:01:29;24.90;28.60
21085;DHT22;34247;50.064;19.970;2023-01-01T04:02:54;24.90;28.70
21085;DHT22;34247;50.064;19.970;2023-01-01T04:04:00;24.90;28.70
21085;DHT22;34247;50.064;19.970;2023-01-01T04:05:08;24.90;28.70
21085;DHT22;34247;50.064;19.970;2023-01-01T04:06:14;24.90;28.70
21085;DHT22;34247;50.064;19.970;2023-01-01T04:07:18;24.90;28.60
21085;DHT22;34247;50.064;19.970;2023-01-01T04:08:23;24.90;28.80
21085;DHT22;34247;50.064;19.970;2023-01-01T04:09:30;24.90;28.70
21085;DHT22;34247;50.064;19.970;2023-01-01T04:10:42;24.90;28.70
21085;DHT22;34247;50.064;19.970;2023-01-01T04:11:49;24.90;28.70
21085;DHT22;34247;50.064;19.970;2023-01-01T04:13:13;24.90;28.80
21085;DHT22;34247;50.064;19.970;2023-01-01T04:14:28;24.90;28.80
21085;DHT22;34247;50.064;19.970;2023-01-01T04:15:39;24.80;28.90
21085;DHT22;34247;50.064;19.970;2023-01-01T04:16:44;24.90;28.90
21085;DHT22;34247;50.064;19.970;2023-01-01T04:17:55;24.80;28.90
21085;DHT22;34247;50.064;19.970;2023-01-01T04:18:59;24.90;28.90
21085;DHT22;34247;50.064;19.970;2023-01-01T04:20:04;24.80;29.00
21085;DHT22;34247;50.064;19.970;2023-01-01T04:21:11;24.90;28.80
21085;DHT22;34247;50.064;19.970;2023-01-01T04:22:15;24.80;28.80
21085;DHT22;34247;50.064;19.970;2023-01-01T04:23:20;24.80;28.80
21085;DHT22;34247;50.064;19.970;2023-01-01T04:24:27;24.80;28.80
21085;DHT22;34247;50.064;19.970;2023-01-01T04:25:34;24.80;28.90
21085;DHT22;34247;50.064;19.970;2023-01-01T04:26:42;24.80;28.80
21085;DHT22;34247;50.064;19.970;2023-01-01T04:27:46;24.90;29.40
21085;DHT22;34247;50.064;19.970;2023-01-01T04:29:00;24.80;29.10
21085;DHT22;34247;50.064;19.970;2023-01-01T04:30:06;24.90;28.80
21085;DHT22;34247;50.064;19.970;2023-01-01T04:31:13;24.90;28.90
21085;DHT22;34247;50.064;19.970;2023-01-01T04:32:17;24.90;28.80
21085;DHT22;34247;50.064;19.970;2023-01-01T04:33:23;24.90;28.80
21085;DHT22;34247;50.064;19.970;2023-01-01T04:34:27;24.90;28.80
21085;DHT22;34247;50.064;19.970;2023-01-01T04:35:31;24.90;28.80
21085;DHT22;34247;50.064;19.970;2023-01-01T04:36:35;24.90;28.80
21085;DHT22;34247;50.064;19.970;2023-01-01T04:37:44;24.90;28.90
21085;DHT22;34247;50.064;19.970;2023-01-01T04:38:48;24.90;28.90
21085;DHT22;34247;50.064;19.970;2023-01-01T04:39:54;24.90;28.90
21085;DHT22;34247;50.064;19.970;2023-01-01T04:41:01;24.90;28.90
21085;DHT22;34247;50.064;19.970;2023-01-01T04:42:11;24.90;28.80
21085;DHT22;34247;50.064;19.970;2023-01-01T04:43:15;24.90;28.80
21085;DHT22;34247;50.064;19.970;2023-01-01T04:44:19;24.90;28.80
21085;DHT22;34247;50.064;19.970;2023-01-01T04:45:30;24.90;28.90
21085;DHT22;34247;50.064;19.970;2023-01-01T04:46:34;24.90;28.80
21085;DHT22;34247;50.064;19.970;2023-01-01T04:47:55;25.00;28.90
21085;DHT22;34247;50.064;19.970;2023-01-01T04:48:58;25.00;28.80
21085;DHT22;34247;50.064;19.970;2023-01-01T04:50:02;25.00;28.80
21085;DHT22;34247;50.064;19.970;2023-01-01T04:51:06;25.00;28.80
21085;DHT22;34247;50.064;19.970;2023-01-01T04:52:09;25.00;28.80
21085;DHT22;34247;50.064;19.970;2023-01-01T04:53:13;25.00;28.80
21085;DHT22;34247;50.064;19.970;2023-01-01T04:54:17;25.00;28.80
21085;DHT22;34247;50.064;19.970;2023-01-01T04:55:21;25.00;28.70
21085;DHT22;34247;50.064;19.970;2023-01-01T04:56:25;25.00;28.70
21085;DHT22;34247;50.064;19.970;2023-01-01T04:57:31;25.00;29.20
21085;DHT22;34247;50.064;19.970;2023-01-01T04:58:41;25.00;28.80
21085;DHT22;34247;50.064;19.970;2023-01-01T04:59:44;25.00;29.30
21085;DHT22;34247;50.064;19.970;2023-01-01T05:00:50;25.00;28.80
21085;DHT22;34247;50.064;19.970;2023-01-01T05:01:55;25.00;28.80
21085;DHT22;34247;50.064;19.970;2023-01-01T05:03:00;25.00;28.80
21085;DHT22;34247;50.064;19.970;2023-01-01T05:04:08;25.00;28.80
21085;DHT22;34247;50.064;19.970;2023-01-01T05:05:16;25.00;28.80
21085;DHT22;34247;50.064;19.970;2023-01-01T05:06:36;25.00;28.70
21085;DHT22;34247;50.064;19.970;2023-01-01T05:07:40;25.00;28.70
21085;DHT22;34247;50.064;19.970;2023-01-01T05:08:45;25.00;28.70
21085;DHT22;34247;50.064;19.970;2023-01-01T05:09:51;25.00;28.60
21085;DHT22;34247;50.064;19.970;2023-01-01T05:11:03;25.00;28.60
21085;DHT22;34247;50.064;19.970;2023-01-01T05:12:09;25.00;28.60
21085;DHT22;34247;50.064;19.970;2023-01-01T05:13:13;25.00;28.50
21085;DHT22;34247;50.064;19.970;2023-01-01T05:14:16;25.00;28.60
21085;DHT22;34247;50.064;19.970;2023-01-01T05:15:19;25.00;28.60
21085;DHT22;34247;50.064;19.970;2023-01-01T05:16:25;25.00;28.60
21085;DHT22;34247;50.064;19.970;2023-01-01T05:17:35;25.00;28.60
21085;DHT22;34247;50.064;19.970;2023-01-01T05:18:48;25.00;28.60
21085;DHT22;34247;50.064;19.970;2023-01-01T05:19:54;25.00;28.60
21085;DHT22;34247;50.064;19.970;2023-01-01T05:21:02;25.00;28.60
21085;DHT22;34247;50.064;19.970;2023-01-01T05:22:13;25.00;28.70
21085;DHT22;34247;50.064;19.970;2023-01-01T05:23:19;25.00;28.70
21085;DHT22;34247;50.064;19.970;2023-01-01T05:24:26;25.00;28.60
21085;DHT22;34247;50.064;19.970;2023-01-01T05:25:30;25.00;28.60
21085;DHT22;34247;50.064;19.970;2023-01-01T05:26:37;25.00;28.60
21085;DHT22;34247;50.064;19.970;2023-01-01T05:27:46;25.00;28.60
21085;DHT22;34247;50.064;19.970;2023-01-01T05:28:58;25.00;28.60
21085;DHT22;34247;50.064;19.970;2023-01-01T05:30:04;25.00;28.60
21085;DHT22;34247;50.064;19.970;2023-01-01T05:31:20;25.00;28.70
21085;DHT22;34247;50.064;19.970;2023-01-01T05:32:26;25.00;28.60
21085;DHT22;34247;50.064;19.970;2023-01-01T05:33:33;25.00;28.70
21085;DHT22;34247;50.064;19.970;2023-01-01T05:34:41;24.90;28.60
21085;DHT22;34247;50.064;19.970;2023-01-01T05:35:59;24.90;28.60
21085;DHT22;34247;50.064;19.970;2023-01-01T05:37:03;24.90;28.60
21085;DHT22;34247;50.064;19.970;2023-01-01T05:38:11;24.90;28.70
21085;DHT22;34247;50.064;19.970;2023-01-01T05:39:18;25.00;29.20
21085;DHT22;34247;50.064;19.970;2023-01-01T05:40:23;24.90;28.70
21085;DHT22;34247;50.064;19.970;2023-01-01T05:41:27;24.90;28.70
21085;DHT22;34247;50.064;19.970;2023-01-01T05:42:35;24.90;28.70
21085;DHT22;34247;50.064;19.970;2023-01-01T05:43:41;24.90;28.70
21085;DHT22;34247;50.064;19.970;2023-01-01T05:44:48;24.90;28.60
21085;DHT22;34247;50.064;19.970;2023-01-01T05:46:19;24.90;28.60
21085;DHT22;34247;50.064;19.970;2023-01-01T05:47:26;24.90;28.60
21085;DHT22;34247;50.064;19.970;2023-01-01T05:48:47;24.90;28.60
21085;DHT22;34247;50.064;19.970;2023-01-01T05:49:57;24.90;28.70
21085;DHT22;34247;50.064;19.970;2023-01-01T05:51:10;24.90;28.90
21085;DHT22;34247;50.064;19.970;2023-01-01T05:52:17;24.90;28.80
21085;DHT22;34247;50.064;19.970;2023-01-01T05:53:31;24.90;28.80
21085;DHT22;34247;50.064;19.970;2023-01-01T05:54:37;24.90;28.80
21085;DHT22;34247;50.064;19.970;2023-01-01T05:55:41;24.90;28.80
21085;DHT22;34247;50.064;19.970;2023-01-01T05:56:52;24.90;28.80
21085;DHT22;34247;50.064;19.970;2023-01-01T05:57:57;24.90;28.80
21085;DHT22;34247;50.064;19.970;2023-01-01T05:59:09;24.90;28.90
21085;DHT22;34247;50.064;19.970;2023-01-01T06:00:14;24.90;28.80
21085;DHT22;34247;50.064;19.970;2023-01-01T06:01:42;24.90;28.80
21085;DHT22;34247;50.064;19.970;2023-01-01T06:02:52;24.90;28.80
21085;DHT22;34247;50.064;19.970;2023-01-01T06:03:58;24.90;28.80
21085;DHT22;34247;50.064;19.970;2023-01-01T06:05:03;24.90;28.80
21085;DHT22;34247;50.064;19.970;2023-01-01T06:06:11;24.90;28.80
21085;DHT22;34247;50.064;19.970;2023-01-01T06:07:27;24.90;28.70
21085;DHT22;34247;50.064;19.970;2023-01-01T06:08:31;24.90;28.80
21085;DHT22;34247;50.064;19.970;2023-01-01T06:09:40;24.90;28.80
21085;DHT22;34247;50.064;19.970;2023-01-01T06:10:56;24.90;28.70
21085;DHT22;34247;50.064;19.970;2023-01-01T06:12:02;24.90;28.70
21085;DHT22;34247;50.064;19.970;2023-01-01T06:13:09;24.90;28.70
21085;DHT22;34247;50.064;19.970;2023-01-01T06:14:15;25.00;28.80
21085;DHT22;34247;50.064;19.970;2023-01-01T06:15:28;25.00;28.80
21085;DHT22;34247;50.064;19.970;2023-01-01T06:16:33;25.00;28.80
21085;DHT22;34247;50.064;19.970;2023-01-01T06:17:40;25.00;28.80
21085;DHT22;34247;50.064;19.970;2023-01-01T06:19:15;25.00;28.80
21085;DHT22;34247;50.064;19.970;2023-01-01T06:20:23;25.00;28.80
21085;DHT22;34247;50.064;19.970;2023-01-01T06:21:28;25.00;28.80
21085;DHT22;34247;50.064;19.970;2023-01-01T06:22:44;25.00;28.80
21085;DHT22;34247;50.064;19.970;2023-01-01T06:23:56;25.00;28.80
21085;DHT22;34247;50.064;19.970;2023-01-01T06:25:01;25.00;28.80
21085;DHT22;34247;50.064;19.970;2023-01-01T06:26:18;25.00;28.80
21085;DHT22;34247;50.064;19.970;2023-01-01T06:27:25;25.00;28.70
21085;DHT22;34247;50.064;19.970;2023-01-01T06:28:29;25.00;28.70
21085;DHT22;34247;50.064;19.970;2023-01-01T06:29:33;25.00;28.80
21085;DHT22;34247;50.064;19.970;2023-01-01T06:30:40;25.00;28.80
21085;DHT22;34247;50.064;19.970;2023-01-01T06:31:48;25.00;28.70
21085;DHT22;34247;50.064;19.970;2023-01-01T06:33:03;25.00;28.70
21085;DHT22;34247;50.064;19.970;2023-01-01T06:34:07;25.00;28.80
21085;DHT22;34247;50.064;19.970;2023-01-01T06:35:11;25.00;28.80
21085;DHT22;34247;50.064;19.970;2023-01-01T06:36:16;24.90;28.80
21085;DHT22;34247;50.064;19.970;2023-01-01T06:37:27;25.00;28.80
21085;DHT22;34247;50.064;19.970;2023-01-01T06:38:33;25.00;28.70
21085;DHT22;34247;50.064;19.970;2023-01-01T06:39:39;24.90;28.70
21085;DHT22;34247;50.064;19.970;2023-01-01T06:40:43;24.90;28.70
21085;DHT22;34247;50.064;19.970;2023-01-01T06:41:46;25.00;28.70
21085;DHT22;34247;50.064;19.970;2023-01-01T06:42:50;25.00;28.70
21085;DHT22;34247;50.064;19.970;2023-01-01T06:43:58;25.00;28.70
21085;DHT22;34247;50.064;19.970;2023-01-01T06:45:09;25.00;28.60
21085;DHT22;34247;50.064;19.970;2023-01-01T06:46:21;25.00;28.60
21085;DHT22;34247;50.064;19.970;2023-01-01T06:47:33;25.00;28.70
21085;DHT22;34247;50.064;19.970;2023-01-01T06:48:46;25.00;28.70
21085;DHT22;34247;50.064;19.970;2023-01-01T06:49:52;25.10;28.60
21085;DHT22;34247;50.064;19.970;2023-01-01T06:50:56;25.10;28.50
21085;DHT22;34247;50.064;19.970;2023-01-01T06:52:00;25.10;28.50
21085;DHT22;34247;50.064;19.970;2023-01-01T06:53:11;25.10;28.50
21085;DHT22;34247;50.064;19.970;2023-01-01T06:54:14;25.10;28.50
21085;DHT22;34247;50.064;19.970;2023-01-01T06:55:18;25.10;28.50
21085;DHT22;34247;50.064;19.970;2023-01-01T06:56:24;25.10;28.50
21085;DHT22;34247;50.064;19.970;2023-01-01T06:57:30;25.10;28.40
21085;DHT22;34247;50.064;19.970;2023-01-01T06:58:36;25.10;28.40
21085;DHT22;34247;50.064;19.970;2023-01-01T06:59:40;25.10;28.50
21085;DHT22;34247;50.064;19.970;2023-01-01T07:00:44;25.20;28.50
21085;DHT22;34247;50.064;19.970;2023-01-01T07:01:47;25.10;28.50
21085;DHT22;34247;50.064;19.970;2023-01-01T07:02:52;25.10;28.50
21085;DHT22;34247;50.064;19.970;2023-01-01T07:03:59;25.10;28.50
21085;DHT22;34247;50.064;19.970;2023-01-01T07:05:08;25.10;28.40
21085;DHT22;34247;50.064;19.970;2023-01-01T07:06:12;25.20;28.40
21085;DHT22;34247;50.064;19.970;2023-01-01T07:07:15;25.20;28.30
21085;DHT22;34247;50.064;19.970;2023-01-01T07:08:19;25.20;28.30
21085;DHT22;34247;50.064;19.970;2023-01-01T07:09:23;25.20;28.30
21085;DHT22;34247;50.064;19.970;2023-01-01T07:10:28;25.30;28.20
21085;DHT22;34247;50.064;19.970;2023-01-01T07:11:32;25.30;28.20
21085;DHT22;34247;50.064;19.970;2023-01-01T07:12:38;25.30;28.20
21085;DHT22;34247;50.064;19.970;2023-01-01T07:13:41;25.30;28.10
21085;DHT22;34247;50.064;19.970;2023-01-01T07:14:47;25.30;28.10
21085;DHT22;34247;50.064;19.970;2023-01-01T07:15:51;25.30;28.10
21085;DHT22;34247;50.064;19.970;2023-01-01T07:17:00;25.40;28.30
21085;DHT22;34247;50.064;19.970;2023-01-01T07:18:04;25.40;28.20
21085;DHT22;34247;50.064;19.970;2023-01-01T07:19:08;25.40;28.20
21085;DHT22;34247;50.064;19.970;2023-01-01T07:20:12;25.40;28.20
21085;DHT22;34247;50.064;19.970;2023-01-01T07:21:32;25.40;28.20
21085;DHT22;34247;50.064;19.970;2023-01-01T07:22:40;25.40;28.20
21085;DHT22;34247;50.064;19.970;2023-01-01T07:23:47;25.40;28.10
21085;DHT22;34247;50.064;19.970;2023-01-01T07:24:50;25.40;28.10
21085;DHT22;34247;50.064;19.970;2023-01-01T07:26:03;25.40;28.10
21085;DHT22;34247;50.064;19.970;2023-01-01T07:27:07;25.40;28.20
21085;DHT22;34247;50.064;19.970;2023-01-01T07:28:20;25.50;28.20
21085;DHT22;34247;50.064;19.970;2023-01-01T07:29:25;25.50;28.20
21085;DHT22;34247;50.064;19.970;2023-01-01T07:30:30;25.50;28.10
21085;DHT22;34247;50.064;19.970;2023-01-01T07:31:35;25.50;28.00
21085;DHT22;34247;50.064;19.970;2023-01-01T07:32:42;25.50;28.00
21085;DHT22;34247;50.064;19.970;2023-01-01T07:33:45;25.50;28.50
21085;DHT22;34247;50.064;19.970;2023-01-01T07:34:49;25.60;28.00
21085;DHT22;34247;50.064;19.970;2023-01-01T07:35:54;25.60;28.10
21085;DHT22;34247;50.064;19.970;2023-01-01T07:36:58;25.60;28.00
21085;DHT22;34247;50.064;19.970;2023-01-01T07:38:02;25.70;27.90
21085;DHT22;34247;50.064;19.970;2023-01-01T07:39:05;25.70;27.90
21085;DHT22;34247;50.064;19.970;2023-01-01T07:40:10;25.70;27.90
21085;DHT22;34247;50.064;19.970;2023-01-01T07:41:16;25.70;28.50
21085;DHT22;34247;50.064;19.970;2023-01-01T07:42:20;25.70;27.90
21085;DHT22;34247;50.064;19.970;2023-01-01T07:43:25;25.70;27.90
21085;DHT22;34247;50.064;19.970;2023-01-01T07:44:28;25.70;27.90
21085;DHT22;34247;50.064;19.970;2023-01-01T07:45:32;25.70;27.90
21085;DHT22;34247;50.064;19.970;2023-01-01T07:46:37;25.70;27.90
21085;DHT22;34247;50.064;19.970;2023-01-01T07:47:41;25.70;27.90
21085;DHT22;34247;50.064;19.970;2023-01-01T07:48:44;25.80;27.90
21085;DHT22;34247;50.064;19.970;2023-01-01T07:49:49;25.80;28.00
21085;DHT22;34247;50.064;19.970;2023-01-01T07:50:53;25.80;28.00
21085;DHT22;34247;50.064;19.970;2023-01-01T07:51:56;25.80;27.90
21085;DHT22;34247;50.064;19.970;2023-01-01T07:53:00;25.80;27.80
21085;DHT22;34247;50.064;19.970;2023-01-01T07:54:04;25.80;27.90
21085;DHT22;34247;50.064;19.970;2023-01-01T07:55:14;25.90;27.90
21085;DHT22;34247;50.064;19.970;2023-01-01T07:56:22;25.90;27.90